East Wallingford, VT

6:58 PM EST on December 27, 2014 (GMT -0500)
Sugar Hill | Change Station
CLOSE
Current Station
Personal Weather Station
Location: East Wallingford, VT
Elevation: 1650 ft
Nearby Weather Stations

Elev 1650 ft 43.44 °N, 72.89 °W | Updated 17 seconds ago

Mostly Cloudy
Mostly Cloudy
36.7 °F
Feels Like 37 °F
N
1.2
Wind Variable Wind from WNW
Gusts 0.0 mph

Today
High -- | Low -- °F
--% Chance of Precip.
Yesterday
High -- | Low -- °F
Precip. -- in
7:23 AM 4:21 PM
Waxing Crescent, 41% visible
Pressure 30.07 in
Visibility 10.0 miles
Clouds Overcast 4800 ft
Windchill 37 °F
Dew Point 34 °F
Humidity 90%
Rainfall 0.00 in
Snow Depth Not available.
UV 0.0 out of 12
Pollen .10 out of 12
Air Quality Not available.
Flu Activity Not available.
METAR KRUT 272355Z 15006KT 10SM OVC048 02/M01 A3007 RMK AO1 10070 20020 400700010 57007

More Conditions Fewer Conditions

Pressure 30.07 in
Visibility 10.0 miles
Clouds Overcast 4800 ft
Windchill 37 °F
Dew Point 34 °F
Humidity 90%
Rainfall 0.00 in
Snow Depth Not available.
UV 0.0 out of 12
Pollen .10 out of 12
Air Quality Not available.
Flu Activity Not available.
METAR KRUT 272355Z 15006KT 10SM OVC048 02/M01 A3007 RMK AO1 10070 20020 400700010 57007

More Conditions Fewer Conditions

10-Day Weather Forecast

Almanac

Astronomy

Dec. 27, 2014 Rise Set
Actual Time
Civil Twilight
Nautical Twilight
Astronomical Twilight
Moon
Length of Visible Light
Length of Day
Tomorrow will be .
, % of the Moon is Illuminated

Today's Extremes

State Highs State Lows

Community

WunderPhotos

Upload Photos

1,781,110 photos uploaded!

WunderBlogs® & News

Nearby

Air Quality

  Air Quality AQ Index Pollutant
Not available.

Snow Depth

Station Depth Elevation

Earthquake Activity

City Distance Mag. Time & Date
Minimum magnitude displayed is 2.5.

Coastal Water Temperatures

Place Temperature

Nearby Weather Stations